sensor_id;sensor_type;location;lat;lon;timestamp;temperature;humidity
9043;DHT22;4556;49.150;8.808;2022-11-15T00:02:24;9.00;99.90
9043;DHT22;4556;49.150;8.808;2022-11-15T00:04:51;8.30;99.90
9043;DHT22;4556;49.150;8.808;2022-11-15T00:07:20;8.30;99.90
9043;DHT22;4556;49.150;8.808;2022-11-15T00:09:47;8.20;99.90
9043;DHT22;4556;49.150;8.808;2022-11-15T00:12:14;8.30;99.90
9043;DHT22;4556;49.150;8.808;2022-11-15T00:14:41;8.00;99.90
9043;DHT22;4556;49.150;8.808;2022-11-15T00:17:08;10.10;99.90
9043;DHT22;4556;49.150;8.808;2022-11-15T00:19:35;10.60;99.90
9043;DHT22;4556;49.150;8.808;2022-11-15T00:22:02;9.70;99.90
9043;DHT22;4556;49.150;8.808;2022-11-15T00:24:30;8.90;99.90
9043;DHT22;4556;49.150;8.808;2022-11-15T00:26:57;8.60;99.90
9043;DHT22;4556;49.150;8.808;2022-11-15T00:29:24;8.40;99.90
9043;DHT22;4556;49.150;8.808;2022-11-15T00:31:52;8.40;99.90
9043;DHT22;4556;49.150;8.808;2022-11-15T00:34:19;8.30;99.90
9043;DHT22;4556;49.150;8.808;2022-11-15T00:36:46;8.40;99.90
9043;DHT22;4556;49.150;8.808;2022-11-15T00:39:12;8.20;99.90
9043;DHT22;4556;49.150;8.808;2022-11-15T00:41:41;8.10;99.90
9043;DHT22;4556;49.150;8.808;2022-11-15T00:44:08;10.20;99.90
9043;DHT22;4556;49.150;8.808;2022-11-15T00:46:35;8.10;99.90
9043;DHT22;4556;49.150;8.808;2022-11-15T00:49:02;8.30;99.90
9043;DHT22;4556;49.150;8.808;2022-11-15T00:51:29;8.00;99.90
9043;DHT22;4556;49.150;8.808;2022-11-15T00:53:55;8.00;99.90
9043;DHT22;4556;49.150;8.808;2022-11-15T00:56:23;8.70;99.90
9043;DHT22;4556;49.150;8.808;2022-11-15T00:58:52;8.40;99.90
9043;DHT22;4556;49.150;8.808;2022-11-15T01:01:19;8.70;99.90
9043;DHT22;4556;49.150;8.808;2022-11-15T01:03:46;7.60;99.90
9043;DHT22;4556;49.150;8.808;2022-11-15T01:06:13;7.70;99.90
9043;DHT22;4556;49.150;8.808;2022-11-15T01:08:42;7.70;99.90
9043;DHT22;4556;49.150;8.808;2022-11-15T01:11:10;7.60;99.90
9043;DHT22;4556;49.150;8.808;2022-11-15T01:13:38;7.60;99.90
9043;DHT22;4556;49.150;8.808;2022-11-15T01:16:09;8.80;99.90
9043;DHT22;4556;49.150;8.808;2022-11-15T01:18:37;8.80;99.90
9043;DHT22;4556;49.150;8.808;2022-11-15T01:21:06;7.50;99.90
9043;DHT22;4556;49.150;8.808;2022-11-15T01:23:33;7.50;99.90
9043;DHT22;4556;49.150;8.808;2022-11-15T01:26:00;9.10;99.90
9043;DHT22;4556;49.150;8.808;2022-11-15T01:28:30;7.20;99.90
9043;DHT22;4556;49.150;8.808;2022-11-15T01:30:58;7.20;99.90
9043;DHT22;4556;49.150;8.808;2022-11-15T01:33:27;8.10;99.90
9043;DHT22;4556;49.150;8.808;2022-11-15T01:35:54;7.30;99.90
9043;DHT22;4556;49.150;8.808;2022-11-15T01:38:22;7.30;99.90
9043;DHT22;4556;49.150;8.808;2022-11-15T01:40:49;7.30;99.90
9043;DHT22;4556;49.150;8.808;2022-11-15T01:43:21;7.40;99.90
9043;DHT22;4556;49.150;8.808;2022-11-15T01:45:51;7.40;99.90
9043;DHT22;4556;49.150;8.808;2022-11-15T01:48:20;7.00;99.90
9043;DHT22;4556;49.150;8.808;2022-11-15T01:50:49;7.30;99.90
9043;DHT22;4556;49.150;8.808;2022-11-15T01:53:17;7.30;99.90
9043;DHT22;4556;49.150;8.808;2022-11-15T01:55:46;7.40;99.90
9043;DHT22;4556;49.150;8.808;2022-11-15T01:58:12;5.70;99.90
9043;DHT22;4556;49.150;8.808;2022-11-15T02:00:40;7.30;99.90
9043;DHT22;4556;49.150;8.808;2022-11-15T02:03:07;9.80;99.90
9043;DHT22;4556;49.150;8.808;2022-11-15T02:05:35;10.20;99.90
9043;DHT22;4556;49.150;8.808;2022-11-15T02:08:05;7.50;99.90
9043;DHT22;4556;49.150;8.808;2022-11-15T02:10:32;7.00;99.90
9043;DHT22;4556;49.150;8.808;2022-11-15T02:13:00;7.30;99.90
9043;DHT22;4556;49.150;8.808;2022-11-15T02:15:34;7.00;99.90
9043;DHT22;4556;49.150;8.808;2022-11-15T02:18:11;8.20;99.90
9043;DHT22;4556;49.150;8.808;2022-11-15T02:20:58;7.10;99.90
9043;DHT22;4556;49.150;8.808;2022-11-15T02:29:32;7.00;99.90
9043;DHT22;4556;49.150;8.808;2022-11-15T02:32:09;7.10;99.90
9043;DHT22;4556;49.150;8.808;2022-11-15T02:34:47;7.10;99.90
9043;DHT22;4556;49.150;8.808;2022-11-15T02:37:21;8.10;99.90
9043;DHT22;4556;49.150;8.808;2022-11-15T02:39:59;7.00;99.90
9043;DHT22;4556;49.150;8.808;2022-11-15T02:42:32;7.10;99.90
9043;DHT22;4556;49.150;8.808;2022-11-15T02:45:21;6.80;99.90
9043;DHT22;4556;49.150;8.808;2022-11-15T02:47:54;7.00;99.90
9043;DHT22;4556;49.150;8.808;2022-11-15T02:50:26;7.10;99.90
9043;DHT22;4556;49.150;8.808;2022-11-15T02:52:54;7.10;99.90
9043;DHT22;4556;49.150;8.808;2022-11-15T02:55:26;7.20;99.90
9043;DHT22;4556;49.150;8.808;2022-11-15T02:58:14;7.10;99.90
9043;DHT22;4556;49.150;8.808;2022-11-15T03:00:50;7.60;99.90
9043;DHT22;4556;49.150;8.808;2022-11-15T03:03:33;9.40;99.90
9043;DHT22;4556;49.150;8.808;2022-11-15T03:06:19;7.30;99.90
9043;DHT22;4556;49.150;8.808;2022-11-15T03:08:53;7.30;99.90
9043;DHT22;4556;49.150;8.808;2022-11-15T03:11:23;7.30;99.90
9043;DHT22;4556;49.150;8.808;2022-11-15T03:13:54;7.50;99.90
9043;DHT22;4556;49.150;8.808;2022-11-15T03:16:28;7.70;99.90
9043;DHT22;4556;49.150;8.808;2022-11-15T03:19:01;7.60;99.90
9043;DHT22;4556;49.150;8.808;2022-11-15T03:21:30;7.60;99.90
9043;DHT22;4556;49.150;8.808;2022-11-15T03:24:00;7.70;99.90
9043;DHT22;4556;49.150;8.808;2022-11-15T03:26:30;8.10;99.90
9043;DHT22;4556;49.150;8.808;2022-11-15T03:29:00;10.30;99.90
9043;DHT22;4556;49.150;8.808;2022-11-15T03:31:30;7.60;99.90
9043;DHT22;4556;49.150;8.808;2022-11-15T03:34:20;7.50;99.90
9043;DHT22;4556;49.150;8.808;2022-11-15T03:36:50;8.00;99.90
9043;DHT22;4556;49.150;8.808;2022-11-15T03:39:18;7.70;99.90
9043;DHT22;4556;49.150;8.808;2022-11-15T03:41:49;7.70;99.90
9043;DHT22;4556;49.150;8.808;2022-11-15T03:44:23;7.70;99.90
9043;DHT22;4556;49.150;8.808;2022-11-15T03:46:57;7.70;99.90
9043;DHT22;4556;49.150;8.808;2022-11-15T03:49:30;7.60;99.90
9043;DHT22;4556;49.150;8.808;2022-11-15T03:51:59;8.40;99.90
9043;DHT22;4556;49.150;8.808;2022-11-15T03:54:26;8.40;99.90
9043;DHT22;4556;49.150;8.808;2022-11-15T03:56:53;7.60;99.90
9043;DHT22;4556;49.150;8.808;2022-11-15T03:59:22;7.60;99.90
9043;DHT22;4556;49.150;8.808;2022-11-15T04:01:49;7.90;99.90
9043;DHT22;4556;49.150;8.808;2022-11-15T04:04:16;10.00;99.90
9043;DHT22;4556;49.150;8.808;2022-11-15T04:06:44;9.60;99.90
9043;DHT22;4556;49.150;8.808;2022-11-15T04:09:11;7.90;99.90
9043;DHT22;4556;49.150;8.808;2022-11-15T04:11:38;8.70;99.90
9043;DHT22;4556;49.150;8.808;2022-11-15T04:14:05;8.10;99.90
9043;DHT22;4556;49.150;8.808;2022-11-15T04:16:32;8.10;99.90
9043;DHT22;4556;49.150;8.808;2022-11-15T04:18:59;8.10;99.90
9043;DHT22;4556;49.150;8.808;2022-11-15T04:21:45;9.10;99.90
9043;DHT22;4556;49.150;8.808;2022-11-15T04:24:30;8.30;99.90
9043;DHT22;4556;49.150;8.808;2022-11-15T04:26:56;8.40;99.90
9043;DHT22;4556;49.150;8.808;2022-11-15T04:29:26;8.40;99.90
9043;DHT22;4556;49.150;8.808;2022-11-15T04:32:03;8.60;99.90
9043;DHT22;4556;49.150;8.808;2022-11-15T04:34:31;8.40;99.90
9043;DHT22;4556;49.150;8.808;2022-11-15T04:37:00;8.50;99.90
9043;DHT22;4556;49.150;8.808;2022-11-15T04:39:38;8.40;99.90
9043;DHT22;4556;49.150;8.808;2022-11-15T04:42:05;8.30;99.90
9043;DHT22;4556;49.150;8.808;2022-11-15T04:44:32;8.20;99.90
9043;DHT22;4556;49.150;8.808;2022-11-15T04:46:59;9.70;99.90
9043;DHT22;4556;49.150;8.808;2022-11-15T04:49:26;8.30;99.90
9043;DHT22;4556;49.150;8.808;2022-11-15T04:51:53;8.40;99.90
9043;DHT22;4556;49.150;8.808;2022-11-15T04:54:21;9.70;99.90
9043;DHT22;4556;49.150;8.808;2022-11-15T04:56:48;8.40;99.90
9043;DHT22;4556;49.150;8.808;2022-11-15T04:59:15;8.50;99.90
9043;DHT22;4556;49.150;8.808;2022-11-15T05:01:42;8.50;99.90
9043;DHT22;4556;49.150;8.808;2022-11-15T05:04:10;8.40;99.90
9043;DHT22;4556;49.150;8.808;2022-11-15T05:06:45;8.40;99.90
9043;DHT22;4556;49.150;8.808;2022-11-15T05:09:12;8.50;99.90
9043;DHT22;4556;49.150;8.808;2022-11-15T05:11:41;8.50;99.90
9043;DHT22;4556;49.150;8.808;2022-11-15T05:14:08;8.50;99.90
9043;DHT22;4556;49.150;8.808;2022-11-15T05:16:36;8.50;99.90
9043;DHT22;4556;49.150;8.808;2022-11-15T05:19:03;8.50;99.90
9043;DHT22;4556;49.150;8.808;2022-11-15T05:21:31;8.50;99.90
9043;DHT22;4556;49.150;8.808;2022-11-15T05:23:58;8.50;99.90
9043;DHT22;4556;49.150;8.808;2022-11-15T05:26:25;8.60;99.90
9043;DHT22;4556;49.150;8.808;2022-11-15T05:28:54;8.50;99.90
9043;DHT22;4556;49.150;8.808;2022-11-15T05:31:21;8.50;99.90
9043;DHT22;4556;49.150;8.808;2022-11-15T05:33:49;8.40;99.90
9043;DHT22;4556;49.150;8.808;2022-11-15T05:36:20;8.30;99.90
9043;DHT22;4556;49.150;8.808;2022-11-15T05:38:49;8.40;99.90
9043;DHT22;4556;49.150;8.808;2022-11-15T05:41:19;8.30;99.90
9043;DHT22;4556;49.150;8.808;2022-11-15T05:43:48;8.10;99.90
9043;DHT22;4556;49.150;8.808;2022-11-15T05:46:18;8.20;99.90
9043;DHT22;4556;49.150;8.808;2022-11-15T05:48:47;7.90;99.90
9043;DHT22;4556;49.150;8.808;2022-11-15T05:51:15;7.80;99.90
9043;DHT22;4556;49.150;8.808;2022-11-15T05:53:43;8.20;99.90
9043;DHT22;4556;49.150;8.808;2022-11-15T05:56:11;8.40;99.90
9043;DHT22;4556;49.150;8.808;2022-11-15T05:58:38;9.20;99.90
9043;DHT22;4556;49.150;8.808;2022-11-15T06:01:05;10.00;99.90
9043;DHT22;4556;49.150;8.808;2022-11-15T06:03:34;8.70;99.90
9043;DHT22;4556;49.150;8.808;2022-11-15T06:06:01;7.70;99.90
9043;DHT22;4556;49.150;8.808;2022-11-15T06:08:28;7.50;99.90
9043;DHT22;4556;49.150;8.808;2022-11-15T06:10:55;7.50;99.90
9043;DHT22;4556;49.150;8.808;2022-11-15T06:13:22;7.70;99.90
9043;DHT22;4556;49.150;8.808;2022-11-15T06:15:48;7.50;99.90
9043;DHT22;4556;49.150;8.808;2022-11-15T06:18:15;7.50;99.90
9043;DHT22;4556;49.150;8.808;2022-11-15T06:20:44;7.40;99.90
9043;DHT22;4556;49.150;8.808;2022-11-15T06:23:11;7.20;99.90
9043;DHT22;4556;49.150;8.808;2022-11-15T06:25:38;7.20;99.90
9043;DHT22;4556;49.150;8.808;2022-11-15T06:28:05;7.20;99.90
9043;DHT22;4556;49.150;8.808;2022-11-15T06:30:32;8.70;99.90
9043;DHT22;4556;49.150;8.808;2022-11-15T06:33:00;9.70;99.90
9043;DHT22;4556;49.150;8.808;2022-11-15T06:35:28;8.70;99.90
9043;DHT22;4556;49.150;8.808;2022-11-15T06:38:02;7.10;99.90
9043;DHT22;4556;49.150;8.808;2022-11-15T06:40:29;7.10;99.90
9043;DHT22;4556;49.150;8.808;2022-11-15T06:42:57;7.20;99.90
9043;DHT22;4556;49.150;8.808;2022-11-15T06:45:24;7.10;99.90
9043;DHT22;4556;49.150;8.808;2022-11-15T06:47:51;7.20;99.90
9043;DHT22;4556;49.150;8.808;2022-11-15T06:50:18;7.30;99.90
9043;DHT22;4556;49.150;8.808;2022-11-15T06:52:45;8.10;99.90
9043;DHT22;4556;49.150;8.808;2022-11-15T06:55:14;7.40;99.90
9043;DHT22;4556;49.150;8.808;2022-11-15T06:57:47;7.30;99.90
9043;DHT22;4556;49.150;8.808;2022-11-15T07:00:15;8.20;99.90
9043;DHT22;4556;49.150;8.808;2022-11-15T07:02:42;7.20;99.90
9043;DHT22;4556;49.150;8.808;2022-11-15T07:05:10;7.50;99.90
9043;DHT22;4556;49.150;8.808;2022-11-15T07:07:37;9.00;99.90
9043;DHT22;4556;49.150;8.808;2022-11-15T07:10:05;7.60;99.90
9043;DHT22;4556;49.150;8.808;2022-11-15T07:12:34;7.60;99.90
9043;DHT22;4556;49.150;8.808;2022-11-15T07:15:01;9.50;99.90
9043;DHT22;4556;49.150;8.808;2022-11-15T07:17:28;7.60;99.90
9043;DHT22;4556;49.150;8.808;2022-11-15T07:19:55;7.80;99.90
9043;DHT22;4556;49.150;8.808;2022-11-15T07:22:22;7.80;99.90
9043;DHT22;4556;49.150;8.808;2022-11-15T07:24:49;7.80;99.90
9043;DHT22;4556;49.150;8.808;2022-11-15T07:27:16;8.10;99.90
9043;DHT22;4556;49.150;8.808;2022-11-15T07:29:44;8.30;99.90
9043;DHT22;4556;49.150;8.808;2022-11-15T07:32:11;8.40;99.90
9043;DHT22;4556;49.150;8.808;2022-11-15T07:34:38;8.40;99.90
9043;DHT22;4556;49.150;8.808;2022-11-15T07:37:04;9.00;99.90
9043;DHT22;4556;49.150;8.808;2022-11-15T07:39:31;8.40;99.90
9043;DHT22;4556;49.150;8.808;2022-11-15T07:41:59;9.80;99.90
9043;DHT22;4556;49.150;8.808;2022-11-15T07:44:45;8.30;99.90
9043;DHT22;4556;49.150;8.808;2022-11-15T07:47:12;10.40;99.90
9043;DHT22;4556;49.150;8.808;2022-11-15T07:49:39;8.70;99.90
9043;DHT22;4556;49.150;8.808;2022-11-15T07:52:06;8.60;99.90
9043;DHT22;4556;49.150;8.808;2022-11-15T07:54:33;8.50;99.90
9043;DHT22;4556;49.150;8.808;2022-11-15T07:57:00;10.70;99.90
9043;DHT22;4556;49.150;8.808;2022-11-15T07:59:27;9.60;99.90
9043;DHT22;4556;49.150;8.808;2022-11-15T08:01:56;8.40;99.90
9043;DHT22;4556;49.150;8.808;2022-11-15T08:04:23;8.90;99.90
9043;DHT22;4556;49.150;8.808;2022-11-15T08:06:49;8.90;99.90
9043;DHT22;4556;49.150;8.808;2022-11-15T08:09:16;9.10;99.90
9043;DHT22;4556;49.150;8.808;2022-11-15T08:11:43;11.20;99.90
9043;DHT22;4556;49.150;8.808;2022-11-15T08:14:10;9.50;99.90
9043;DHT22;4556;49.150;8.808;2022-11-15T08:16:37;9.30;99.90
9043;DHT22;4556;49.150;8.808;2022-11-15T08:19:06;9.60;99.90
9043;DHT22;4556;49.150;8.808;2022-11-15T08:21:32;9.40;99.90
9043;DHT22;4556;49.150;8.808;2022-11-15T08:24:00;9.40;99.90
9043;DHT22;4556;49.150;8.808;2022-11-15T08:26:27;9.60;99.90
9043;DHT22;4556;49.150;8.808;2022-11-15T08:28:55;9.50;99.90
9043;DHT22;4556;49.150;8.808;2022-11-15T08:31:22;9.50;99.90
9043;DHT22;4556;49.150;8.808;2022-11-15T08:33:49;9.60;99.90
9043;DHT22;4556;49.150;8.808;2022-11-15T08:36:17;9.60;99.90
9043;DHT22;4556;49.150;8.808;2022-11-15T08:38:45;9.50;99.90
9043;DHT22;4556;49.150;8.808;2022-11-15T08:41:15;11.70;99.90
9043;DHT22;4556;49.150;8.808;2022-11-15T08:43:45;9.70;99.90
9043;DHT22;4556;49.150;8.808;2022-11-15T08:46:13;11.10;99.90
9043;DHT22;4556;49.150;8.808;2022-11-15T08:48:40;9.80;99.90
9043;DHT22;4556;49.150;8.808;2022-11-15T08:51:07;10.90;99.90
9043;DHT22;4556;49.150;8.808;2022-11-15T08:53:35;9.90;99.90
9043;DHT22;4556;49.150;8.808;2022-11-15T08:56:07;10.00;99.90
9043;DHT22;4556;49.150;8.808;2022-11-15T08:58:34;9.80;99.90
9043;DHT22;4556;49.150;8.808;2022-11-15T09:01:01;13.00;99.90
9043;DHT22;4556;49.150;8.808;2022-11-15T09:03:28;10.00;99.90
9043;DHT22;4556;49.150;8.808;2022-11-15T09:05:55;10.70;99.90
9043;DHT22;4556;49.150;8.808;2022-11-15T09:08:22;10.20;99.90
9043;DHT22;4556;49.150;8.808;2022-11-15T09:10:51;12.20;99.90
9043;DHT22;4556;49.150;8.808;2022-11-15T09:13:18;10.30;99.90
9043;DHT22;4556;49.150;8.808;2022-11-15T09:15:45;11.70;99.90
9043;DHT22;4556;49.150;8.808;2022-11-15T09:18:12;11.30;99.90
9043;DHT22;4556;49.150;8.808;2022-11-15T09:20:39;13.30;99.90
9043;DHT22;4556;49.150;8.808;2022-11-15T09:23:06;10.80;99.90
9043;DHT22;4556;49.150;8.808;2022-11-15T09:25:33;10.60;99.90
9043;DHT22;4556;49.150;8.808;2022-11-15T09:28:05;12.00;99.90
9043;DHT22;4556;49.150;8.808;2022-11-15T09:30:32;10.70;99.90
9043;DHT22;4556;49.150;8.808;2022-11-15T09:33:06;12.20;99.90
9043;DHT22;4556;49.150;8.808;2022-11-15T09:35:33;11.40;99.90
9043;DHT22;4556;49.150;8.808;2022-11-15T09:38:00;13.20;99.90
9043;DHT22;4556;49.150;8.808;2022-11-15T09:40:29;12.60;99.90
9043;DHT22;4556;49.150;8.808;2022-11-15T09:43:08;10.90;99.90
9043;DHT22;4556;49.150;8.808;2022-11-15T09:45:52;12.40;99.90
9043;DHT22;4556;49.150;8.808;2022-11-15T09:51:27;10.90;99.90
9043;DHT22;4556;49.150;8.808;2022-11-15T09:54:03;10.90;99.90
9043;DHT22;4556;49.150;8.808;2022-11-15T09:56:32;11.00;99.90
9043;DHT22;4556;49.150;8.808;2022-11-15T09:59:12;11.00;99.90
9043;DHT22;4556;49.150;8.808;2022-11-15T10:01:47;11.40;99.90
9043;DHT22;4556;49.150;8.808;2022-11-15T10:04:16;11.20;99.90
9043;DHT22;4556;49.150;8.808;2022-11-15T10:06:52;12.40;99.90
9043;DHT22;4556;49.150;8.808;2022-11-15T10:09:25;11.20;99.90
9043;DHT22;4556;49.150;8.808;2022-11-15T10:11:55;11.30;99.90
9043;DHT22;4556;49.150;8.808;2022-11-15T10:14:26;11.30;99.90
9043;DHT22;4556;49.150;8.808;2022-11-15T10:17:36;14.00;99.90
9043;DHT22;4556;49.150;8.808;2022-11-15T10:20:11;11.50;99.90
9043;DHT22;4556;49.150;8.808;2022-11-15T10:22:41;11.50;99.90
9043;DHT22;4556;49.150;8.808;2022-11-15T10:25:17;11.80;99.90
9043;DHT22;4556;49.150;8.808;2022-11-15T10:27:50;11.50;99.90
9043;DHT22;4556;49.150;8.808;2022-11-15T10:30:20;11.60;99.90
9043;DHT22;4556;49.150;8.808;2022-11-15T10:32:48;11.80;99.90
9043;DHT22;4556;49.150;8.808;2022-11-15T10:35:18;11.90;99.90
9043;DHT22;4556;49.150;8.808;2022-11-15T10:37:45;12.00;99.90
9043;DHT22;4556;49.150;8.808;2022-11-15T10:40:18;12.00;99.90
9043;DHT22;4556;49.150;8.808;2022-11-15T10:42:46;11.90;99.90
9043;DHT22;4556;49.150;8.808;2022-11-15T10:45:26;11.80;99.90
9043;DHT22;4556;49.150;8.808;2022-11-15T10:47:53;11.80;99.90
9043;DHT22;4556;49.150;8.808;2022-11-15T10:50:31;11.70;99.90
9043;DHT22;4556;49.150;8.808;2022-11-15T10:52:58;11.80;99.90
9043;DHT22;4556;49.150;8.808;2022-11-15T10:55:28;11.70;99.90
9043;DHT22;4556;49.150;8.808;2022-11-15T10:58:02;12.00;99.90
9043;DHT22;4556;49.150;8.808;2022-11-15T11:00:34;12.20;99.90
9043;DHT22;4556;49.150;8.808;2022-11-15T11:03:03;12.10;99.90
9043;DHT22;4556;49.150;8.808;2022-11-15T11:05:34;12.20;99.90
9043;DHT22;4556;49.150;8.808;2022-11-15T11:08:05;12.40;99.90
9043;DHT22;4556;49.150;8.808;2022-11-15T11:10:32;12.20;99.90
9043;DHT22;4556;49.150;8.808;2022-11-15T11:13:13;12.40;99.90
9043;DHT22;4556;49.150;8.808;2022-11-15T11:15:44;12.30;99.90
9043;DHT22;4556;49.150;8.808;2022-11-15T11:18:20;13.50;99.90
9043;DHT22;4556;49.150;8.808;2022-11-15T11:20:51;12.20;99.90
9043;DHT22;4556;49.150;8.808;2022-11-15T11:23:33;12.50;99.90
9043;DHT22;4556;49.150;8.808;2022-11-15T11:26:15;12.30;99.90
9043;DHT22;4556;49.150;8.808;2022-11-15T11:28:53;12.40;99.90
9043;DHT22;4556;49.150;8.808;2022-11-15T11:31:30;12.50;99.90
9043;DHT22;4556;49.150;8.808;2022-11-15T11:34:08;12.80;99.90
9043;DHT22;4556;49.150;8.808;2022-11-15T11:36:43;12.80;99.90
9043;DHT22;4556;49.150;8.808;2022-11-15T11:39:24;15.10;99.90
9043;DHT22;4556;49.150;8.808;2022-11-15T11:41:59;12.80;99.90
9043;DHT22;4556;49.150;8.808;2022-11-15T11:44:46;12.80;99.90
9043;DHT22;4556;49.150;8.808;2022-11-15T11:47:22;12.70;99.90
9043;DHT22;4556;49.150;8.808;2022-11-15T11:49:51;12.80;99.90
9043;DHT22;4556;49.150;8.808;2022-11-15T11:52:24;12.80;99.90
9043;DHT22;4556;49.150;8.808;2022-11-15T11:55:00;14.50;99.90
9043;DHT22;4556;49.150;8.808;2022-11-15T11:57:35;13.40;99.90
9043;DHT22;4556;49.150;8.808;2022-11-15T12:00:15;12.80;99.90
9043;DHT22;4556;49.150;8.808;2022-11-15T12:02:47;12.90;99.90
9043;DHT22;4556;49.150;8.808;2022-11-15T12:05:22;13.00;99.90
9043;DHT22;4556;49.150;8.808;2022-11-15T12:07:51;13.10;99.90
9043;DHT22;4556;49.150;8.808;2022-11-15T12:10:22;13.20;99.90
9043;DHT22;4556;49.150;8.808;2022-11-15T12:12:56;13.20;99.90
9043;DHT22;4556;49.150;8.808;2022-11-15T12:15:28;13.10;99.90
9043;DHT22;4556;49.150;8.808;2022-11-15T12:18:00;15.40;99.90
9043;DHT22;4556;49.150;8.808;2022-11-15T12:20:29;13.70;99.90
9043;DHT22;4556;49.150;8.808;2022-11-15T12:22:59;13.00;99.90
9043;DHT22;4556;49.150;8.808;2022-11-15T12:25:31;14.70;99.90
9043;DHT22;4556;49.150;8.808;2022-11-15T12:28:06;12.90;99.90
9043;DHT22;4556;49.150;8.808;2022-11-15T12:30:43;12.80;99.90
9043;DHT22;4556;49.150;8.808;2022-11-15T12:33:34;13.80;99.90
9043;DHT22;4556;49.150;8.808;2022-11-15T12:36:04;12.80;99.90
9043;DHT22;4556;49.150;8.808;2022-11-15T12:38:52;12.70;99.90
9043;DHT22;4556;49.150;8.808;2022-11-15T12:41:21;12.90;99.90
9043;DHT22;4556;49.150;8.808;2022-11-15T12:43:49;12.80;99.90
9043;DHT22;4556;49.150;8.808;2022-11-15T12:46:22;11.90;99.90
9043;DHT22;4556;49.150;8.808;2022-11-15T12:48:54;12.70;99.90
9043;DHT22;4556;49.150;8.808;2022-11-15T12:57:32;12.70;99.90
9043;DHT22;4556;49.150;8.808;2022-11-15T13:00:01;12.70;99.90
9043;DHT22;4556;49.150;8.808;2022-11-15T13:02:30;12.90;99.90
9043;DHT22;4556;49.150;8.808;2022-11-15T13:08:00;12.90;99.90
9043;DHT22;4556;49.150;8.808;2022-11-15T13:10:32;13.10;99.90
9043;DHT22;4556;49.150;8.808;2022-11-15T13:13:00;13.10;99.90
9043;DHT22;4556;49.150;8.808;2022-11-15T13:18:34;13.30;99.90
9043;DHT22;4556;49.150;8.808;2022-11-15T13:21:02;13.20;99.90
9043;DHT22;4556;49.150;8.808;2022-11-15T13:23:54;13.40;99.90
9043;DHT22;4556;49.150;8.808;2022-11-15T13:26:21;14.40;99.90
9043;DHT22;4556;49.150;8.808;2022-11-15T13:28:51;13.40;99.90
9043;DHT22;4556;49.150;8.808;2022-11-15T13:31:29;13.30;99.90
9043;DHT22;4556;49.150;8.808;2022-11-15T13:34:00;13.40;99.90
9043;DHT22;4556;49.150;8.808;2022-11-15T13:36:31;15.40;99.90
9043;DHT22;4556;49.150;8.808;2022-11-15T13:39:03;14.90;99.90
9043;DHT22;4556;49.150;8.808;2022-11-15T13:41:32;13.40;99.90
9043;DHT22;4556;49.150;8.808;2022-11-15T13:44:01;13.70;99.90
9043;DHT22;4556;49.150;8.808;2022-11-15T13:46:29;13.40;99.90
9043;DHT22;4556;49.150;8.808;2022-11-15T13:49:00;14.90;99.90
9043;DHT22;4556;49.150;8.808;2022-11-15T13:51:35;14.70;99.90
9043;DHT22;4556;49.150;8.808;2022-11-15T13:54:12;14.70;99.90
9043;DHT22;4556;49.150;8.808;2022-11-15T13:56:42;13.30;99.90
9043;DHT22;4556;49.150;8.808;2022-11-15T13:59:15;13.40;99.90
9043;DHT22;4556;49.150;8.808;2022-11-15T14:01:44;13.30;99.90
9043;DHT22;4556;49.150;8.808;2022-11-15T14:04:13;13.30;99.90
9043;DHT22;4556;49.150;8.808;2022-11-15T14:06:45;13.50;99.90
9043;DHT22;4556;49.150;8.808;2022-11-15T14:09:33;13.10;99.90
9043;DHT22;4556;49.150;8.808;2022-11-15T14:12:01;13.00;99.90
9043;DHT22;4556;49.150;8.808;2022-11-15T14:14:30;13.00;99.90
9043;DHT22;4556;49.150;8.808;2022-11-15T14:16:59;13.00;99.90
9043;DHT22;4556;49.150;8.808;2022-11-15T14:19:38;13.00;99.90
9043;DHT22;4556;49.150;8.808;2022-11-15T14:22:14;13.00;99.90
9043;DHT22;4556;49.150;8.808;2022-11-15T14:24:44;14.70;99.90
9043;DHT22;4556;49.150;8.808;2022-11-15T14:27:19;12.90;99.90
9043;DHT22;4556;49.150;8.808;2022-11-15T14:29:47;12.90;99.90
9043;DHT22;4556;49.150;8.808;2022-11-15T14:32:15;13.60;99.90
9043;DHT22;4556;49.150;8.808;2022-11-15T14:34:43;12.90;99.90
9043;DHT22;4556;49.150;8.808;2022-11-15T14:37:19;12.80;99.90
9043;DHT22;4556;49.150;8.808;2022-11-15T14:39:49;12.80;99.90
9043;DHT22;4556;49.150;8.808;2022-11-15T14:42:16;12.70;99.90
9043;DHT22;4556;49.150;8.808;2022-11-15T14:44:43;14.10;99.90
9043;DHT22;4556;49.150;8.808;2022-11-15T14:47:10;14.80;99.90
9043;DHT22;4556;49.150;8.808;2022-11-15T14:49:37;15.70;99.90
9043;DHT22;4556;49.150;8.808;2022-11-15T14:52:13;12.60;99.90
9043;DHT22;4556;49.150;8.808;2022-11-15T14:54:43;12.70;99.90
9043;DHT22;4556;49.150;8.808;2022-11-15T14:57:11;14.90;99.90
9043;DHT22;4556;49.150;8.808;2022-11-15T14:59:38;14.60;99.90
9043;DHT22;4556;49.150;8.808;2022-11-15T15:02:11;14.40;99.90
9043;DHT22;4556;49.150;8.808;2022-11-15T15:04:40;12.40;99.90
9043;DHT22;4556;49.150;8.808;2022-11-15T15:07:08;15.50;99.90
9043;DHT22;4556;49.150;8.808;2022-11-15T15:09:35;12.40;99.90
9043;DHT22;4556;49.150;8.808;2022-11-15T15:12:02;12.40;99.90
9043;DHT22;4556;49.150;8.808;2022-11-15T15:14:30;12.30;99.90
9043;DHT22;4556;49.150;8.808;2022-11-15T15:16:57;12.20;99.90
9043;DHT22;4556;49.150;8.808;2022-11-15T15:19:24;12.20;99.90
9043;DHT22;4556;49.150;8.808;2022-11-15T15:21:51;12.80;99.90
9043;DHT22;4556;49.150;8.808;2022-11-15T15:24:18;14.90;99.90
9043;DHT22;4556;49.150;8.808;2022-11-15T15:26:45;12.10;99.90
9043;DHT22;4556;49.150;8.808;2022-11-15T15:29:12;12.00;99.90
9043;DHT22;4556;49.150;8.808;2022-11-15T15:31:41;12.00;99.90
9043;DHT22;4556;49.150;8.808;2022-11-15T15:34:08;11.90;99.90
9043;DHT22;4556;49.150;8.808;2022-11-15T15:36:34;13.90;99.90
9043;DHT22;4556;49.150;8.808;2022-11-15T15:39:02;12.50;99.90
9043;DHT22;4556;49.150;8.808;2022-11-15T15:41:29;11.80;99.90
9043;DHT22;4556;49.150;8.808;2022-11-15T15:43:56;11.70;99.90
9043;DHT22;4556;49.150;8.808;2022-11-15T15:46:24;12.20;99.90
9043;DHT22;4556;49.150;8.808;2022-11-15T15:48:53;11.70;99.90
9043;DHT22;4556;49.150;8.808;2022-11-15T15:51:20;11.80;99.90
9043;DHT22;4556;49.150;8.808;2022-11-15T15:53:47;13.50;99.90
9043;DHT22;4556;49.150;8.808;2022-11-15T15:56:16;11.70;99.90
9043;DHT22;4556;49.150;8.808;2022-11-15T15:58:43;13.50;99.90
9043;DHT22;4556;49.150;8.808;2022-11-15T16:01:09;11.70;99.90
9043;DHT22;4556;49.150;8.808;2022-11-15T16:03:36;11.70;99.90
9043;DHT22;4556;49.150;8.808;2022-11-15T16:08:47;11.60;99.90
9043;DHT22;4556;49.150;8.808;2022-11-15T16:11:14;11.70;99.90
9043;DHT22;4556;49.150;8.808;2022-11-15T16:13:41;11.70;99.90
9043;DHT22;4556;49.150;8.808;2022-11-15T16:16:09;11.70;99.90
9043;DHT22;4556;49.150;8.808;2022-11-15T16:18:40;11.70;99.90
9043;DHT22;4556;49.150;8.808;2022-11-15T16:21:09;11.70;99.90
9043;DHT22;4556;49.150;8.808;2022-11-15T16:23:36;11.70;99.90
9043;DHT22;4556;49.150;8.808;2022-11-15T16:26:14;11.70;99.90
9043;DHT22;4556;49.150;8.808;2022-11-15T16:28:44;12.10;99.90
9043;DHT22;4556;49.150;8.808;2022-11-15T16:31:12;13.00;99.90
9043;DHT22;4556;49.150;8.808;2022-11-15T16:33:39;13.70;99.90
9043;DHT22;4556;49.150;8.808;2022-11-15T16:36:20;11.70;99.90
9043;DHT22;4556;49.150;8.808;2022-11-15T16:38:48;11.80;99.90
9043;DHT22;4556;49.150;8.808;2022-11-15T16:41:15;13.90;99.90
9043;DHT22;4556;49.150;8.808;2022-11-15T16:46:14;11.90;99.90
9043;DHT22;4556;49.150;8.808;2022-11-15T16:48:42;11.90;99.90
9043;DHT22;4556;49.150;8.808;2022-11-15T16:51:09;12.00;99.90
9043;DHT22;4556;49.150;8.808;2022-11-15T16:53:37;11.90;99.90
9043;DHT22;4556;49.150;8.808;2022-11-15T16:56:15;12.80;99.90